Time;durP1;ratioP1;P1;durP2;ratioP2;P2;SDS_P1;SDS_P2;PMS_P1;PMS_P2;Temp;Humidity;BMP_temperature;BMP_pressure;BME280_temperature;BME280_humidity;BME280_pressure;Samples;Min_cycle;Max_cycle;Signal;HPM_P1;HPM_P2
2022/03/11 00:01:52;;;;;;;29.10;14.25;;;2.40;99.90;;;;;;5032903;28;20036;-82
2022/03/11 00:04:18;;;;;;;31.60;12.90;;;2.40;99.90;;;;;;5036968;28;20118;-82
2022/03/11 00:06:44;;;;;;;26.85;13.27;;;2.40;99.90;;;;;;5048697;28;20035;-82
2022/03/11 00:09:09;;;;;;;27.65;13.02;;;2.40;99.90;;;;;;5042691;28;20625;-80
2022/03/11 00:11:35;;;;;;;28.05;13.77;;;2.30;99.90;;;;;;5050190;28;20040;-83
2022/03/11 00:14:01;;;;;;;29.40;12.80;;;2.30;99.90;;;;;;5042863;28;20028;-82
2022/03/11 00:16:27;;;;;;;32.90;15.13;;;2.30;99.90;;;;;;5053207;28;20067;-82
2022/03/11 00:18:53;;;;;;;30.05;13.60;;;2.40;99.90;;;;;;5014873;28;20029;-85
2022/03/11 00:21:19;;;;;;;30.00;14.73;;;2.30;99.90;;;;;;5049291;28;20048;-81
2022/03/11 00:23:45;;;;;;;28.95;13.35;;;2.30;99.90;;;;;;5031624;28;20029;-82
2022/03/11 00:26:11;;;;;;;27.52;13.80;;;2.20;99.90;;;;;;5031939;28;20084;-83
2022/03/11 00:28:40;;;;;;;30.17;14.05;;;2.10;99.90;;;;;;5030769;28;20500;-84
2022/03/11 00:31:06;;;;;;;30.50;14.20;;;2.00;99.90;;;;;;5030901;28;20044;-83
2022/03/11 00:33:32;;;;;;;30.02;14.63;;;2.00;99.90;;;;;;5031074;28;20032;-86
2022/03/11 00:35:58;;;;;;;37.75;14.95;;;2.00;99.90;;;;;;5031766;28;20374;-84
2022/03/11 00:38:25;;;;;;;32.85;15.18;;;2.00;99.90;;;;;;5031674;28;20040;-84
2022/03/11 00:40:56;;;;;;;31.33;15.27;;;2.00;99.90;;;;;;5014617;28;20049;-82
2022/03/11 00:43:22;;;;;;;31.77;14.82;;;2.10;99.90;;;;;;5031207;28;20061;-82
2022/03/11 00:45:49;;;;;;;32.88;15.70;;;2.10;99.90;;;;;;5035095;28;20044;-81
2022/03/11 00:48:15;;;;;;;31.23;14.88;;;2.00;99.90;;;;;;5031683;28;20525;-83
2022/03/11 00:50:41;;;;;;;36.97;16.45;;;1.90;99.90;;;;;;5031516;28;20095;-82
2022/03/11 00:53:07;;;;;;;37.45;15.70;;;1.90;99.90;;;;;;5036607;28;20119;-81
2022/03/11 00:55:35;;;;;;;33.55;15.70;;;1.90;99.90;;;;;;5065384;28;20033;-82
2022/03/11 00:58:01;;;;;;;33.00;15.25;;;1.90;99.90;;;;;;5057413;28;20028;-84
2022/03/11 01:00:27;;;;;;;31.70;16.35;;;1.90;99.90;;;;;;5070704;28;20054;-84
2022/03/11 01:02:53;;;;;;;34.88;15.45;;;1.90;99.90;;;;;;5077564;28;20422;-83
2022/03/11 01:05:22;;;;;;;32.55;15.88;;;1.80;99.90;;;;;;5063386;28;20043;-81
2022/03/11 01:07:48;;;;;;;29.85;14.88;;;1.80;99.90;;;;;;5055242;28;20028;-82
2022/03/11 01:10:15;;;;;;;38.65;16.00;;;1.90;99.90;;;;;;5038098;28;20029;-82
2022/03/11 01:12:42;;;;;;;31.70;15.93;;;1.90;99.90;;;;;;5037407;28;20044;-82
2022/03/11 01:15:09;;;;;;;34.08;16.58;;;1.80;99.90;;;;;;5054118;28;20032;-84
2022/03/11 01:17:34;;;;;;;33.40;16.35;;;1.80;99.90;;;;;;5037675;28;20086;-82
2022/03/11 01:20:00;;;;;;;32.40;17.00;;;1.70;99.90;;;;;;5038062;28;20033;-84
2022/03/11 01:22:26;;;;;;;35.90;16.40;;;1.60;99.90;;;;;;5072214;28;20120;-81
2022/03/11 01:24:52;;;;;;;37.30;17.30;;;1.60;99.90;;;;;;5054672;28;20032;-82
2022/03/11 01:27:18;;;;;;;42.10;18.27;;;1.60;99.90;;;;;;5024075;28;20389;-81
2022/03/11 01:29:44;;;;;;;34.42;16.95;;;1.50;99.90;;;;;;5049370;28;20064;-81
2022/03/11 01:32:10;;;;;;;37.38;17.75;;;1.40;99.90;;;;;;5064745;28;20123;-81
2022/03/11 01:34:35;;;;;;;39.42;18.23;;;1.40;99.90;;;;;;5069718;28;20385;-83
2022/03/11 01:37:01;;;;;;;34.72;18.00;;;1.50;99.90;;;;;;5072137;28;20515;-82
2022/03/11 01:39:27;;;;;;;38.22;18.08;;;1.50;99.90;;;;;;5071346;28;20032;-83
2022/03/11 01:41:52;;;;;;;40.38;18.92;;;1.40;99.90;;;;;;5054923;28;20032;-84
2022/03/11 01:44:18;;;;;;;40.22;18.10;;;1.40;99.90;;;;;;5054516;28;20455;-83
2022/03/11 01:46:44;;;;;;;43.53;19.50;;;1.30;99.90;;;;;;5058334;28;20028;-83
2022/03/11 01:49:13;;;;;;;38.20;17.60;;;1.20;99.90;;;;;;5072243;28;20031;-83
2022/03/11 01:51:42;;;;;;;37.33;18.55;;;1.10;99.90;;;;;;5054994;28;20044;-82
2022/03/11 01:54:08;;;;;;;40.97;18.52;;;1.10;99.90;;;;;;5072718;28;20028;-82
2022/03/11 01:56:35;;;;;;;40.83;18.90;;;1.10;99.90;;;;;;5037767;28;20044;-85
2022/03/11 01:59:03;;;;;;;40.70;19.58;;;1.00;99.90;;;;;;5036951;28;20089;-84
2022/03/11 02:01:29;;;;;;;45.35;19.35;;;1.10;99.90;;;;;;5073253;28;20067;-84
2022/03/11 02:03:58;;;;;;;44.63;20.02;;;1.10;99.90;;;;;;5038086;28;20036;-83
2022/03/11 02:06:26;;;;;;;36.70;19.50;;;1.00;99.90;;;;;;5037208;28;20033;-82
2022/03/11 02:08:52;;;;;;;42.30;19.42;;;1.00;99.90;;;;;;5036105;28;20532;-85
2022/03/11 02:11:19;;;;;;;44.10;19.75;;;1.00;99.90;;;;;;5042826;28;20029;-82
2022/03/11 02:14:00;;;;;;;45.70;19.92;;;0.90;99.90;;;;;;5055415;28;20029;-82
2022/03/11 02:16:28;;;;;;;44.90;20.77;;;0.90;99.90;;;;;;5046222;28;20081;-85
2022/03/11 02:18:55;;;;;;;43.30;20.23;;;0.90;99.90;;;;;;5070332;28;20032;-82
2022/03/11 02:21:22;;;;;;;43.20;20.20;;;0.90;99.90;;;;;;5069949;28;20496;-83
2022/03/11 02:23:50;;;;;;;38.88;21.13;;;0.90;99.90;;;;;;5071982;28;20381;-82
2022/03/11 02:26:20;;;;;;;43.00;20.90;;;0.90;99.90;;;;;;5054658;28;20037;-83
2022/03/11 02:28:47;;;;;;;41.67;20.73;;;0.90;99.90;;;;;;5053727;28;20036;-83
2022/03/11 02:31:13;;;;;;;50.17;21.92;;;0.80;99.90;;;;;;5054122;28;20504;-83
2022/03/11 02:33:39;;;;;;;45.15;20.95;;;0.80;99.90;;;;;;5072590;28;20032;-83
2022/03/11 02:36:06;;;;;;;47.35;23.42;;;0.70;99.90;;;;;;5054293;28;20086;-80
2022/03/11 02:38:33;;;;;;;48.40;22.83;;;0.60;99.90;;;;;;5055268;28;20135;-83
2022/03/11 02:40:58;;;;;;;51.05;22.15;;;0.70;99.90;;;;;;5054129;28;20044;-82
2022/03/11 02:43:30;;;;;;;44.05;21.13;;;0.70;99.90;;;;;;5053840;28;20561;-83
2022/03/11 02:45:56;;;;;;;56.92;22.85;;;0.60;99.90;;;;;;5063913;28;20519;-83
2022/03/11 02:48:22;;;;;;;50.67;23.58;;;0.60;99.90;;;;;;5054112;28;20029;-85
2022/03/11 02:50:52;;;;;;;49.15;22.65;;;0.60;99.90;;;;;;5037162;28;20135;-82
2022/03/11 02:53:18;;;;;;;45.58;22.27;;;0.50;99.90;;;;;;5037127;28;20117;-84
2022/03/11 02:55:43;;;;;;;52.33;23.13;;;0.50;99.90;;;;;;5036390;28;20112;-83
2022/03/11 02:58:09;;;;;;;46.55;23.17;;;0.40;99.90;;;;;;5036740;28;20036;-82
2022/03/11 03:00:37;;;;;;;45.83;21.42;;;0.40;99.90;;;;;;5053507;28;20028;-83
2022/03/11 03:03:02;;;;;;;52.55;22.77;;;0.40;99.90;;;;;;5059554;28;20378;-82
2022/03/11 03:05:28;;;;;;;52.60;23.52;;;0.40;99.90;;;;;;5066536;28;20109;-83
2022/03/11 03:07:55;;;;;;;49.55;21.85;;;0.40;99.90;;;;;;5052393;28;20110;-82
2022/03/11 03:10:21;;;;;;;47.30;23.58;;;0.30;99.90;;;;;;5069343;28;20032;-82
2022/03/11 03:12:47;;;;;;;43.35;22.00;;;0.40;99.90;;;;;;5069572;28;20036;-83
2022/03/11 03:15:13;;;;;;;49.20;23.25;;;0.40;99.90;;;;;;5069728;28;20792;-83
2022/03/11 03:17:38;;;;;;;55.05;23.23;;;0.30;99.90;;;;;;5052813;28;20168;-81
2022/03/11 03:20:05;;;;;;;52.00;22.85;;;0.20;99.90;;;;;;5069189;28;20044;-82
2022/03/11 03:22:31;;;;;;;54.90;22.95;;;0.20;99.90;;;;;;5070070;28;20029;-84
2022/03/11 03:25:00;;;;;;;46.95;21.65;;;0.20;99.90;;;;;;5070226;28;20024;-83
2022/03/11 03:27:26;;;;;;;44.58;22.48;;;0.20;99.90;;;;;;5071410;28;20023;-84
2022/03/11 03:29:52;;;;;;;52.55;23.05;;;0.20;99.90;;;;;;5053076;28;20425;-83
2022/03/11 03:32:17;;;;;;;53.97;20.95;;;0.30;99.90;;;;;;5070254;28;20037;-83
2022/03/11 03:34:43;;;;;;;52.05;23.63;;;0.20;99.90;;;;;;5069921;28;20025;-81
2022/03/11 03:37:10;;;;;;;47.92;22.65;;;0.20;99.90;;;;;;5053707;28;20312;-82
2022/03/11 03:39:38;;;;;;;44.45;20.92;;;0.20;99.90;;;;;;5071384;28;20397;-84
2022/03/11 03:42:04;;;;;;;50.28;22.27;;;0.20;99.90;;;;;;5068702;28;20476;-84
2022/03/11 03:44:30;;;;;;;48.33;22.17;;;0.10;99.90;;;;;;5052287;28;20024;-84
2022/03/11 03:46:56;;;;;;;57.97;23.38;;;0.10;99.90;;;;;;5036910;28;20474;-81
2022/03/11 03:49:23;;;;;;;45.67;21.30;;;0.10;99.90;;;;;;5059666;28;20028;-83
2022/03/11 03:51:49;;;;;;;49.25;21.63;;;0.00;99.90;;;;;;5072481;28;20029;-83
2022/03/11 03:54:16;;;;;;;47.85;21.98;;;-0.10;99.90;;;;;;5062785;28;20040;-82
2022/03/11 03:56:45;;;;;;;49.53;21.88;;;-0.10;99.90;;;;;;5049066;28;20362;-82
2022/03/11 03:59:12;;;;;;;44.45;20.00;;;-0.20;99.90;;;;;;5049343;28;20493;-82
2022/03/11 04:01:40;;;;;;;46.15;20.58;;;-0.30;99.90;;;;;;5050288;28;20071;-82
2022/03/11 04:04:07;;;;;;;41.63;20.90;;;-0.30;99.90;;;;;;5049433;28;20037;-81
2022/03/11 04:06:55;;;;;;;47.35;21.92;;;-0.30;99.90;;;;;;5051490;28;20048;-82
2022/03/11 04:09:30;;;;;;;55.78;20.80;;;-0.30;99.90;;;;;;5048464;28;20044;-83
2022/03/11 04:11:56;;;;;;;42.80;20.73;;;-0.40;99.90;;;;;;5057170;28;20123;-82
2022/03/11 04:14:22;;;;;;;39.75;18.23;;;-0.40;99.90;;;;;;5053047;28;20127;-81
2022/03/11 04:16:48;;;;;;;46.35;19.92;;;-0.40;99.90;;;;;;5050003;28;20025;-83
2022/03/11 04:19:14;;;;;;;38.90;18.58;;;-0.40;99.90;;;;;;5047822;28;20199;-81
2022/03/11 04:21:40;;;;;;;40.25;18.55;;;-0.40;99.90;;;;;;5048097;28;20105;-82
2022/03/11 04:24:12;;;;;;;46.47;17.95;;;-0.40;99.90;;;;;;5047617;28;20037;-84
2022/03/11 04:26:44;;;;;;;41.47;18.88;;;-0.50;99.90;;;;;;5047519;28;20454;-81
2022/03/11 04:29:13;;;;;;;41.47;19.13;;;-0.50;99.90;;;;;;5047743;28;20482;-83
2022/03/11 04:31:39;;;;;;;38.58;18.70;;;-0.50;99.90;;;;;;5051330;28;20769;-81
2022/03/11 04:34:05;;;;;;;46.42;19.10;;;-0.60;99.90;;;;;;5053929;28;20041;-83
2022/03/11 04:36:38;;;;;;;41.65;18.80;;;-0.60;99.90;;;;;;5057033;28;20036;-82
2022/03/11 04:39:06;;;;;;;41.58;18.38;;;-0.60;99.90;;;;;;5059216;28;20085;-84
2022/03/11 04:41:33;;;;;;;41.28;18.38;;;-0.60;99.90;;;;;;5057458;28;20045;-82
2022/03/11 04:43:59;;;;;;;40.00;17.50;;;-0.70;99.90;;;;;;5057691;28;20025;-84
2022/03/11 04:46:26;;;;;;;38.50;17.30;;;-0.60;99.90;;;;;;5076790;28;20021;-82
2022/03/11 04:48:51;;;;;;;42.22;18.08;;;-0.60;99.90;;;;;;5059103;28;20032;-81
2022/03/11 04:51:22;;;;;;;37.80;17.23;;;-0.70;99.90;;;;;;5046615;28;20036;-80
2022/03/11 04:53:49;;;;;;;40.55;17.35;;;-0.70;99.90;;;;;;5056073;28;20029;-82
2022/03/11 04:56:16;;;;;;;38.22;17.10;;;-0.70;99.90;;;;;;5073469;28;20059;-81
2022/03/11 04:58:41;;;;;;;39.28;17.20;;;-0.80;99.90;;;;;;5073921;28;20055;-85
2022/03/11 05:01:07;;;;;;;40.65;16.75;;;-0.80;99.90;;;;;;5073834;28;20457;-81
2022/03/11 05:03:34;;;;;;;43.20;17.38;;;-0.80;99.90;;;;;;5058399;28;20024;-83
2022/03/11 05:06:00;;;;;;;43.13;16.90;;;-1.00;99.90;;;;;;5058929;28;20028;-81
2022/03/11 05:08:26;;;;;;;34.13;15.18;;;-1.00;99.90;;;;;;5093196;28;20021;-82
2022/03/11 05:10:52;;;;;;;46.50;17.30;;;-0.90;99.90;;;;;;5062348;28;20040;-81
2022/03/11 05:13:18;;;;;;;37.75;15.73;;;-1.00;99.90;;;;;;5056481;28;20033;-83
2022/03/11 05:15:44;;;;;;;36.47;16.33;;;-1.00;99.90;;;;;;5038793;28;20033;-82
2022/03/11 05:18:11;;;;;;;36.03;16.92;;;-1.10;99.90;;;;;;5055421;28;20036;-84
2022/03/11 05:20:37;;;;;;;40.90;16.77;;;-1.10;99.90;;;;;;5038561;28;20481;-81
2022/03/11 05:23:03;;;;;;;39.13;17.25;;;-1.10;99.90;;;;;;5054795;28;20039;-82
2022/03/11 05:25:29;;;;;;;39.40;15.40;;;-1.20;99.90;;;;;;5054452;28;20548;-81
2022/03/11 05:27:55;;;;;;;42.40;16.65;;;-1.20;99.90;;;;;;5054648;28;20035;-83
2022/03/11 05:30:22;;;;;;;43.38;17.65;;;-1.30;99.90;;;;;;5054122;28;20033;-82
2022/03/11 05:32:48;;;;;;;39.28;16.63;;;-1.40;99.90;;;;;;5038110;28;20028;-83
2022/03/11 05:35:16;;;;;;;39.90;16.40;;;-1.40;99.90;;;;;;5072194;28;20043;-83
2022/03/11 05:37:42;;;;;;;46.88;17.77;;;-1.40;99.90;;;;;;5037353;28;20036;-82
2022/03/11 05:40:09;;;;;;;63.97;22.73;;;-1.40;99.90;;;;;;5053921;28;20412;-82
2022/03/11 05:42:35;;;;;;;69.18;22.15;;;-1.40;99.90;;;;;;5053098;28;20029;-84
2022/03/11 05:45:04;;;;;;;39.80;16.90;;;-1.50;99.90;;;;;;5054359;28;20338;-81
2022/03/11 05:47:30;;;;;;;47.05;18.98;;;-1.50;99.90;;;;;;5054273;28;20030;-82
2022/03/11 05:49:56;;;;;;;38.60;16.77;;;-1.50;99.90;;;;;;5027777;28;20463;-82
2022/03/11 05:52:22;;;;;;;36.42;16.48;;;-1.40;99.90;;;;;;5054960;28;20123;-81
2022/03/11 05:54:48;;;;;;;39.83;16.17;;;-1.50;99.90;;;;;;5072528;28;20031;-82
2022/03/11 05:57:14;;;;;;;42.83;17.73;;;-1.40;99.90;;;;;;5054448;28;20024;-84
2022/03/11 05:59:40;;;;;;;31.58;14.50;;;-1.50;99.90;;;;;;5037452;28;20039;-82
2022/03/11 06:02:06;;;;;;;36.13;15.45;;;-1.40;99.90;;;;;;5053832;28;20035;-82
2022/03/11 06:04:32;;;;;;;35.58;16.05;;;-1.40;99.90;;;;;;5036615;28;20036;-83
2022/03/11 06:07:01;;;;;;;39.30;15.75;;;-1.40;99.90;;;;;;5037236;28;20487;-82
2022/03/11 06:09:27;;;;;;;39.50;15.70;;;-1.40;99.90;;;;;;5036785;28;20036;-82
2022/03/11 06:11:53;;;;;;;37.08;16.67;;;-1.40;99.90;;;;;;5036784;28;20058;-85
2022/03/11 06:14:22;;;;;;;35.15;15.80;;;-1.50;99.90;;;;;;5036444;28;20456;-83
2022/03/11 06:16:48;;;;;;;34.45;15.48;;;-1.40;99.90;;;;;;5036485;28;20064;-83
2022/03/11 06:19:14;;;;;;;34.80;15.07;;;-1.50;99.90;;;;;;5053172;28;20489;-82
2022/03/11 06:21:40;;;;;;;37.00;15.02;;;-1.40;99.90;;;;;;5052986;28;20169;-81
2022/03/11 06:24:06;;;;;;;32.67;14.50;;;-1.40;99.90;;;;;;5053057;28;20037;-82
2022/03/11 06:26:32;;;;;;;44.65;17.80;;;-1.30;99.90;;;;;;5070771;28;20082;-82
2022/03/11 06:28:59;;;;;;;38.60;16.92;;;-1.20;99.90;;;;;;5064845;28;20358;-83
2022/03/11 06:31:25;;;;;;;35.42;14.82;;;-1.30;99.90;;;;;;5033371;28;20028;-82
2022/03/11 06:33:52;;;;;;;34.38;14.82;;;-1.20;99.90;;;;;;5069601;28;20024;-82
2022/03/11 06:36:18;;;;;;;34.83;14.70;;;-1.10;99.90;;;;;;5053221;28;20036;-86
2022/03/11 06:38:43;;;;;;;42.75;14.88;;;-1.10;99.90;;;;;;5071989;28;20082;-84
2022/03/11 06:41:09;;;;;;;32.25;14.80;;;-1.10;99.90;;;;;;5064135;28;20074;-86
2022/03/11 06:43:35;;;;;;;34.15;14.48;;;-1.00;99.90;;;;;;5090840;28;20020;-83
2022/03/11 06:46:05;;;;;;;31.55;13.73;;;-1.00;99.90;;;;;;5056034;28;20370;-86
2022/03/11 06:48:31;;;;;;;30.17;13.93;;;-0.90;99.90;;;;;;5049788;28;20030;-80
2022/03/11 06:50:57;;;;;;;30.65;15.00;;;-0.90;99.90;;;;;;5049347;28;20075;-83
2022/03/11 06:53:26;;;;;;;35.10;13.98;;;-0.90;99.90;;;;;;5048231;28;20036;-81
2022/03/11 06:55:53;;;;;;;33.90;14.27;;;-0.90;99.90;;;;;;5047532;28;20037;-83
2022/03/11 06:58:19;;;;;;;29.73;13.77;;;-0.80;99.90;;;;;;5052690;28;20440;-81
2022/03/11 07:00:44;;;;;;;28.80;13.27;;;-0.70;99.90;;;;;;5056368;28;20233;-83
2022/03/11 07:03:10;;;;;;;26.70;12.63;;;-0.70;99.90;;;;;;5051103;28;20107;-83
2022/03/11 07:05:36;;;;;;;26.83;13.02;;;-0.70;99.90;;;;;;5040026;28;21488;-83
2022/03/11 07:08:02;;;;;;;34.60;13.30;;;-0.60;99.90;;;;;;5018769;28;20153;-82
2022/03/11 07:10:28;;;;;;;28.27;13.15;;;-0.60;99.90;;;;;;5016149;28;20034;-83
2022/03/11 07:12:58;;;;;;;31.88;13.35;;;-0.50;99.90;;;;;;5014485;28;20030;-85
2022/03/11 07:15:25;;;;;;;31.50;13.68;;;-0.50;99.90;;;;;;5012424;28;20504;-83
2022/03/11 07:17:51;;;;;;;28.48;12.98;;;-0.40;99.90;;;;;;5015303;28;20052;-82
2022/03/11 07:20:17;;;;;;;27.13;12.25;;;-0.40;99.90;;;;;;5012250;28;20038;-84
2022/03/11 07:22:47;;;;;;;30.13;13.00;;;-0.30;99.90;;;;;;5012970;28;20065;-80
2022/03/11 07:25:17;;;;;;;24.75;12.07;;;-0.20;99.90;;;;;;5012561;28;20064;-83
2022/03/11 07:27:48;;;;;;;24.38;12.43;;;-0.20;99.90;;;;;;5012797;28;20063;-83
2022/03/11 07:30:13;;;;;;;26.42;12.70;;;-0.10;99.90;;;;;;5012291;28;20060;-84
2022/03/11 07:32:39;;;;;;;28.52;12.55;;;-0.10;99.90;;;;;;5015408;28;20498;-83
2022/03/11 07:35:08;;;;;;;28.50;11.73;;;0.00;99.90;;;;;;5010394;28;20029;-82
2022/03/11 07:37:35;;;;;;;23.88;11.73;;;0.10;99.90;;;;;;5018305;28;20080;-82
2022/03/11 07:40:01;;;;;;;24.85;11.77;;;0.10;99.90;;;;;;5014897;28;20042;-83
2022/03/11 07:42:30;;;;;;;25.70;11.60;;;0.20;99.90;;;;;;5020551;28;20481;-83
2022/03/11 07:45:00;;;;;;;24.85;11.70;;;0.30;99.90;;;;;;5012191;28;20477;-81
2022/03/11 07:47:26;;;;;;;38.75;13.07;;;0.40;99.90;;;;;;5012527;28;20120;-83
2022/03/11 07:49:52;;;;;;;27.33;12.13;;;0.40;99.90;;;;;;5030055;28;20168;-83
2022/03/11 07:52:18;;;;;;;24.98;11.48;;;0.50;99.90;;;;;;5037114;28;20112;-85
2022/03/11 07:54:44;;;;;;;25.13;11.80;;;0.50;99.90;;;;;;5014794;28;20033;-81
2022/03/11 07:57:10;;;;;;;24.67;11.63;;;0.50;99.90;;;;;;5025118;28;20041;-80
2022/03/11 07:59:37;;;;;;;28.42;12.05;;;0.60;99.90;;;;;;5032176;28;20069;-83
2022/03/11 08:02:03;;;;;;;25.17;12.20;;;0.60;99.90;;;;;;5015986;28;20051;-82
2022/03/11 08:04:29;;;;;;;25.73;11.18;;;0.80;99.90;;;;;;5018450;28;20093;-83
2022/03/11 08:06:59;;;;;;;30.73;12.27;;;0.80;99.90;;;;;;5018861;28;20457;-83
2022/03/11 08:09:24;;;;;;;26.65;12.77;;;0.80;99.90;;;;;;5020542;28;20061;-81
2022/03/11 08:11:51;;;;;;;25.58;12.95;;;0.90;99.90;;;;;;5017317;28;20072;-82
2022/03/11 08:14:17;;;;;;;22.42;11.15;;;0.90;99.90;;;;;;5011568;28;20485;-81
2022/03/11 08:16:42;;;;;;;28.65;11.75;;;1.00;99.90;;;;;;5011255;28;20043;-82
2022/03/11 08:19:09;;;;;;;26.23;11.70;;;1.00;99.90;;;;;;5011982;28;20378;-84
2022/03/11 08:21:35;;;;;;;25.45;11.75;;;1.10;99.90;;;;;;5022985;28;20048;-83
2022/03/11 08:24:02;;;;;;;27.08;12.75;;;1.10;99.90;;;;;;5026148;28;20033;-84
2022/03/11 08:26:28;;;;;;;24.67;12.27;;;1.20;99.90;;;;;;5011276;28;20021;-84
2022/03/11 08:28:54;;;;;;;26.25;11.13;;;1.30;99.90;;;;;;5010571;28;20033;-82
2022/03/11 08:31:20;;;;;;;27.45;12.48;;;1.50;99.90;;;;;;5010547;28;20038;-82
2022/03/11 08:33:46;;;;;;;26.25;12.65;;;1.50;99.90;;;;;;5011087;28;20494;-83
2022/03/11 08:36:12;;;;;;;26.85;11.38;;;1.70;99.90;;;;;;5011348;28;20045;-82
2022/03/11 08:38:39;;;;;;;25.40;11.38;;;1.70;99.90;;;;;;4993449;28;20033;-81
2022/03/11 08:41:07;;;;;;;25.77;11.68;;;1.80;99.90;;;;;;5006035;28;20642;-81
2022/03/11 08:43:34;;;;;;;24.42;12.48;;;1.90;99.90;;;;;;5026580;28;20088;-82
2022/03/11 08:46:01;;;;;;;35.33;11.95;;;1.90;99.90;;;;;;5026888;28;20037;-83
2022/03/11 08:48:28;;;;;;;25.65;11.50;;;1.90;99.90;;;;;;5003162;28;20022;-81
2022/03/11 08:50:54;;;;;;;22.52;10.60;;;2.00;99.90;;;;;;4989650;28;20053;-81
2022/03/11 08:53:20;;;;;;;24.58;11.82;;;2.00;99.90;;;;;;4995209;28;20068;-81
2022/03/11 08:55:46;;;;;;;29.05;11.60;;;2.10;99.90;;;;;;5007116;28;20040;-83
2022/03/11 08:58:11;;;;;;;21.60;11.10;;;2.20;99.90;;;;;;5007669;28;20488;-82
2022/03/11 09:00:37;;;;;;;27.05;11.43;;;2.20;99.90;;;;;;5026120;28;20077;-81
2022/03/11 09:03:35;;;;;;;25.13;11.50;;;2.40;99.90;;;;;;5008669;28;20107;-82
2022/03/11 09:06:01;;;;;;;28.85;12.73;;;2.60;99.90;;;;;;5015889;28;20103;-81
2022/03/11 09:08:27;;;;;;;20.58;10.15;;;2.60;99.90;;;;;;5028123;28;20053;-83
2022/03/11 09:10:52;;;;;;;23.35;12.00;;;2.80;99.90;;;;;;5005694;28;20040;-82
2022/03/11 09:13:18;;;;;;;24.00;12.48;;;3.40;99.90;;;;;;4999999;28;20478;-82
2022/03/11 09:15:44;;;;;;;26.25;12.48;;;4.20;99.90;;;;;;5010209;28;20618;-84
2022/03/11 09:18:10;;;;;;;24.67;11.95;;;4.80;99.90;;;;;;5007263;28;20041;-83
2022/03/11 09:20:36;;;;;;;22.45;11.75;;;4.80;99.50;;;;;;5012394;28;20045;-83
2022/03/11 09:23:02;;;;;;;24.77;11.50;;;4.80;98.40;;;;;;5007847;28;20249;-84
2022/03/11 09:25:28;;;;;;;24.70;12.27;;;4.60;99.00;;;;;;4996710;28;20025;-80
2022/03/11 09:27:54;;;;;;;23.13;11.90;;;4.70;98.40;;;;;;5008934;28;20175;-79
2022/03/11 09:30:20;;;;;;;29.00;12.13;;;4.60;98.10;;;;;;5013585;28;20451;-83
2022/03/11 09:32:45;;;;;;;25.05;12.50;;;5.00;98.90;;;;;;4997594;28;20033;-84
2022/03/11 09:35:12;;;;;;;19.15;11.32;;;5.20;96.80;;;;;;5013381;28;20036;-84
2022/03/11 09:37:38;;;;;;;23.73;12.60;;;5.70;96.00;;;;;;4997245;28;20116;-84
2022/03/11 09:40:05;;;;;;;26.48;12.00;;;5.90;94.70;;;;;;5030894;28;20072;-82
2022/03/11 09:42:31;;;;;;;30.48;13.90;;;6.20;94.20;;;;;;5012243;28;20056;-84
2022/03/11 09:44:57;;;;;;;19.27;11.15;;;6.80;92.80;;;;;;5032483;28;20025;-83
2022/03/11 09:47:23;;;;;;;22.00;12.20;;;7.30;92.10;;;;;;5012887;28;20737;-83
2022/03/11 09:49:51;;;;;;;26.50;12.77;;;7.80;90.90;;;;;;5016784;28;20140;-83
2022/03/11 09:52:20;;;;;;;21.55;13.13;;;8.30;89.10;;;;;;5015100;28;20120;-86
2022/03/11 09:54:46;;;;;;;20.42;12.07;;;8.80;86.80;;;;;;5013055;28;20025;-83
2022/03/11 09:57:22;;;;;;;21.63;12.35;;;8.70;84.00;;;;;;5024101;28;20045;-83
2022/03/11 09:59:49;;;;;;;21.15;12.57;;;8.50;82.80;;;;;;4980211;28;20032;-82
2022/03/11 10:02:16;;;;;;;22.55;12.13;;;8.80;80.70;;;;;;4994803;28;20111;-83
2022/03/11 10:04:49;;;;;;;25.00;12.27;;;8.60;80.00;;;;;;5013386;28;20079;-83
2022/03/11 10:07:26;;;;;;;21.73;12.63;;;8.70;79.90;;;;;;4996547;28;20075;-83
2022/03/11 10:09:53;;;;;;;27.33;13.70;;;8.80;79.40;;;;;;4977852;28;20408;-82
2022/03/11 10:12:25;;;;;;;24.15;12.65;;;8.70;80.70;;;;;;4990315;28;20368;-84
2022/03/11 10:15:09;;;;;;;23.27;13.45;;;9.10;79.30;;;;;;4976195;28;20838;-83
2022/03/11 10:17:41;;;;;;;21.40;12.65;;;8.90;78.90;;;;;;5018420;28;20128;-83
2022/03/11 10:20:06;;;;;;;;;;;8.70;78.60;;;;;;5012744;28;20069;-83
2022/03/11 10:22:33;;;;;;;39.47;13.45;;;8.50;79.70;;;;;;5013479;28;20393;-82
2022/03/11 10:25:06;;;;;;;22.48;12.65;;;8.40;80.80;;;;;;4991638;28;20053;-83
2022/03/11 10:27:33;;;;;;;22.92;12.38;;;8.40;81.10;;;;;;4998100;28;20033;-82
2022/03/11 10:30:14;;;;;;;31.60;12.75;;;8.40;79.80;;;;;;5011169;28;20042;-83
2022/03/11 10:32:49;;;;;;;25.63;12.35;;;8.80;79.20;;;;;;5007505;28;20156;-83
2022/03/11 10:35:18;;;;;;;26.65;12.48;;;9.50;78.30;;;;;;4994524;28;20037;-83
2022/03/11 10:38:20;;;;;;;23.30;12.52;;;10.10;76.10;;;;;;4993100;28;20116;-83
2022/03/11 10:40:54;;;;;;;23.85;15.10;;;9.70;74.80;;;;;;4941930;28;20212;-83
2022/03/11 10:43:26;;;;;;;21.70;12.30;;;9.60;76.20;;;;;;4993462;28;20061;-82
2022/03/11 10:46:09;;;;;;;20.85;12.40;;;9.20;75.70;;;;;;5012877;28;20036;-83
2022/03/11 10:48:45;;;;;;;23.40;12.48;;;9.40;75.40;;;;;;5005424;28;20055;-84
2022/03/11 10:51:27;;;;;;;23.55;12.60;;;9.70;74.50;;;;;;5003730;28;20053;-82
2022/03/11 10:53:57;;;;;;;22.15;13.32;;;9.70;74.10;;;;;;5020524;28;20508;-83
2022/03/11 10:56:29;;;;;;;24.75;14.35;;;9.50;75.90;;;;;;5017350;28;20120;-82
2022/03/11 10:58:59;;;;;;;21.00;12.10;;;9.50;76.40;;;;;;5007839;28;20036;-84
2022/03/11 11:01:42;;;;;;;22.75;12.07;;;9.60;75.20;;;;;;5019831;28;20119;-83
2022/03/11 11:04:10;;;;;;;20.95;11.82;;;9.80;73.60;;;;;;5003975;28;20072;-84
2022/03/11 11:06:36;;;;;;;20.08;12.57;;;10.10;74.00;;;;;;5005489;28;20390;-83
2022/03/11 11:09:04;;;;;;;22.48;12.80;;;10.30;72.50;;;;;;5008653;28;20030;-83
2022/03/11 11:11:31;;;;;;;23.55;13.88;;;10.20;73.10;;;;;;4992947;28;20029;-83
2022/03/11 11:13:58;;;;;;;26.95;14.50;;;10.10;73.20;;;;;;5009950;28;20039;-83
2022/03/11 11:16:27;;;;;;;22.05;12.98;;;9.90;74.40;;;;;;5010029;28;20672;-83
2022/03/11 11:18:57;;;;;;;29.67;13.15;;;9.80;74.80;;;;;;5020893;28;20025;-83
2022/03/11 11:21:24;;;;;;;23.65;12.70;;;10.20;74.90;;;;;;5002544;28;20038;-83
2022/03/11 11:23:56;;;;;;;23.27;13.00;;;10.70;73.00;;;;;;5025211;28;20029;-84
2022/03/11 11:26:23;;;;;;;;;;;10.70;71.80;;;;;;5009235;28;20204;-84
2022/03/11 11:28:59;;;;;;;21.65;12.00;;;10.90;70.80;;;;;;4991505;28;19909;-84
2022/03/11 11:31:25;;;;;;;25.65;13.02;;;11.00;69.80;;;;;;4993330;28;20029;-83
2022/03/11 11:33:51;;;;;;;22.95;13.25;;;10.80;70.50;;;;;;5023858;28;20033;-83
2022/03/11 11:36:34;;;;;;;18.60;12.00;;;11.00;69.50;;;;;;5010235;28;20057;-82
2022/03/11 11:39:05;;;;;;;27.13;12.35;;;11.10;70.50;;;;;;4988591;28;20414;-85
2022/03/11 11:41:33;;;;;;;29.67;12.43;;;10.80;70.40;;;;;;5012138;28;20086;-83
2022/03/11 11:44:08;;;;;;;27.25;14.95;;;10.60;71.30;;;;;;5010626;28;20021;-84
2022/03/11 11:46:36;;;;;;;31.60;15.55;;;10.80;72.40;;;;;;5008364;28;20100;-83
2022/03/11 11:49:12;;;;;;;22.58;12.27;;;10.80;71.10;;;;;;5003857;28;20488;-86
2022/03/11 11:51:38;;;;;;;26.65;14.85;;;11.20;69.20;;;;;;4987662;28;20086;-84
2022/03/11 11:54:11;;;;;;;25.17;13.52;;;11.90;68.00;;;;;;4994077;28;20034;-84
2022/03/11 11:56:39;;;;;;;23.83;13.65;;;11.50;68.60;;;;;;5002142;28;20038;-82
2022/03/11 11:59:09;;;;;;;26.77;14.20;;;10.80;69.30;;;;;;5001957;28;20030;-83
2022/03/11 12:01:46;;;;;;;30.38;15.70;;;10.90;69.70;;;;;;5019208;28;20195;-84
2022/03/11 12:04:39;;;;;;;26.60;13.30;;;11.60;69.30;;;;;;5010251;28;20028;-83
2022/03/11 12:07:17;;;;;;;22.88;13.82;;;12.10;68.80;;;;;;5014773;28;20065;-82
2022/03/11 12:12:32;;;;;;;21.80;12.98;;;11.90;67.50;;;;;;5010311;28;20320;-81
2022/03/11 12:14:58;;;;;;;18.58;12.10;;;11.90;67.80;;;;;;5015153;28;20025;-86
2022/03/11 12:17:36;;;;;;;21.48;11.73;;;12.20;66.80;;;;;;5016072;28;20026;-84
2022/03/11 12:20:21;;;;;;;21.88;12.82;;;13.00;64.80;;;;;;4993354;28;20367;-83
2022/03/11 12:22:54;;;;;;;26.80;13.90;;;12.90;64.20;;;;;;5009820;28;20057;-83
2022/03/11 12:25:26;;;;;;;24.60;12.20;;;12.60;64.80;;;;;;5009524;28;20026;-86
2022/03/11 12:28:05;;;;;;;22.02;13.00;;;12.40;64.10;;;;;;5000358;28;20116;-85
2022/03/11 12:30:38;;;;;;;23.40;11.73;;;12.20;64.40;;;;;;5001289;28;20029;-85
2022/03/11 12:33:07;;;;;;;27.60;12.95;;;12.50;65.60;;;;;;5017020;28;20426;-84
2022/03/11 12:35:33;;;;;;;27.02;12.48;;;12.70;63.50;;;;;;4975719;28;20080;-83
2022/03/11 12:38:00;;;;;;;21.27;11.98;;;12.40;64.20;;;;;;5004072;28;20520;-83
2022/03/11 12:40:27;;;;;;;21.13;12.93;;;12.30;65.30;;;;;;5004171;28;20037;-82